createdAt,value
2023-03-15T00:00:26.027Z,65.74
2023-03-15T00:02:29.958Z,65.58
2023-03-15T00:04:33.283Z,65.15
2023-03-15T00:06:36.231Z,64.93
2023-03-15T00:08:38.993Z,65.38
2023-03-15T00:10:42.586Z,65.13
2023-03-15T00:12:45.326Z,65.42
2023-03-15T00:14:47.844Z,65.39
2023-03-15T00:16:50.596Z,64.26
2023-03-15T00:18:55.643Z,65.13
2023-03-15T00:20:58.261Z,64.87
2023-03-15T00:23:00.798Z,64.69
2023-03-15T00:25:03.338Z,65.56
2023-03-15T00:27:06.408Z,65.41
2023-03-15T00:29:09.019Z,64.39
2023-03-15T00:31:15.702Z,64.92
2023-03-15T00:33:18.291Z,65.38
2023-03-15T00:35:23.920Z,65.65
2023-03-15T00:37:26.610Z,65.88
2023-03-15T00:39:29.214Z,65.38
2023-03-15T00:41:32.828Z,65.39
2023-03-15T00:43:35.860Z,65.38
2023-03-15T00:45:39.742Z,65.30
2023-03-15T00:47:42.300Z,65.38
2023-03-15T00:49:45.517Z,65.29
2023-03-15T00:51:49.421Z,65.78
2023-03-15T00:53:54.187Z,65.80
2023-03-15T00:55:56.945Z,65.29
2023-03-15T00:57:59.466Z,64.95
2023-03-15T01:00:06.992Z,64.95
2023-03-15T01:02:09.739Z,65.07
2023-03-15T01:04:12.951Z,64.97
2023-03-15T01:06:18.400Z,65.28
2023-03-15T01:08:24.095Z,65.10
2023-03-15T01:10:26.667Z,65.16
2023-03-15T01:12:29.328Z,65.23
2023-03-15T01:14:32.116Z,65.21
2023-03-15T01:16:34.677Z,65.13
2023-03-15T01:18:37.748Z,64.85
2023-03-15T01:20:43.874Z,64.80
2023-03-15T01:22:46.433Z,65.16
2023-03-15T01:24:50.361Z,65.16
2023-03-15T01:26:52.921Z,64.86
2023-03-15T01:28:56.091Z,65.06
2023-03-15T01:30:59.955Z,63.61
2023-03-15T01:33:02.682Z,64.39
2023-03-15T01:35:05.888Z,64.47
2023-03-15T01:37:08.544Z,64.76
2023-03-15T01:39:11.131Z,64.75
2023-03-15T01:41:15.798Z,64.54
2023-03-15T01:43:19.717Z,64.75
2023-03-15T01:45:54.377Z,64.35
2023-03-15T01:47:56.933Z,64.76
2023-03-15T01:50:03.883Z,64.12
2023-03-15T01:52:12.886Z,65.01
2023-03-15T01:54:20.722Z,64.57
2023-03-15T01:56:25.870Z,64.43
2023-03-15T01:58:29.237Z,64.21
2023-03-15T02:00:31.844Z,63.58
2023-03-15T02:02:34.562Z,64.30
2023-03-15T02:04:41.268Z,64.10
2023-03-15T02:06:46.577Z,64.98
2023-03-15T02:08:52.858Z,65.11
2023-03-15T02:10:58.779Z,64.98
2023-03-15T02:13:04.046Z,65.06
2023-03-15T02:15:08.651Z,65.49
2023-03-15T02:17:11.508Z,65.30
2023-03-15T02:19:33.935Z,65.54
2023-03-15T02:21:45.876Z,65.02
2023-03-15T02:23:59.310Z,64.87
2023-03-15T02:26:10.240Z,64.71
2023-03-15T02:28:16.749Z,65.11
2023-03-15T02:30:19.718Z,64.88
2023-03-15T02:32:22.393Z,64.87
2023-03-15T02:34:25.400Z,64.54
2023-03-15T02:36:31.908Z,64.59
2023-03-15T02:38:34.462Z,63.85
2023-03-15T02:40:36.988Z,64.37
2023-03-15T02:42:39.577Z,64.69
2023-03-15T02:44:45.888Z,64.53
2023-03-15T02:46:52.029Z,64.19
2023-03-15T02:48:55.025Z,64.72
2023-03-15T02:50:57.617Z,64.77
2023-03-15T02:53:00.159Z,64.71
2023-03-15T02:55:03.110Z,64.97
2023-03-15T02:57:05.975Z,65.04
2023-03-15T02:59:08.706Z,64.75
2023-03-15T03:01:13.426Z,64.22
2023-03-15T03:03:16.010Z,64.65
2023-03-15T03:05:19.447Z,65.10
2023-03-15T03:07:22.005Z,65.34
2023-03-15T03:09:25.173Z,65.24
2023-03-15T03:11:27.715Z,64.57
2023-03-15T03:13:30.264Z,64.90
2023-03-15T03:15:32.830Z,65.22
2023-03-15T03:17:37.458Z,64.76
2023-03-15T03:19:40.139Z,64.41
2023-03-15T03:21:43.187Z,64.39
2023-03-15T03:23:46.407Z,64.87
2023-03-15T03:25:48.976Z,64.29
2023-03-15T03:27:51.514Z,64.83
2023-03-15T03:29:54.035Z,64.87
2023-03-15T03:31:56.593Z,65.52
2023-03-15T03:34:01.174Z,65.56
2023-03-15T03:36:04.320Z,65.37
2023-03-15T03:38:06.927Z,65.24
2023-03-15T03:40:11.492Z,65.10
2023-03-15T03:42:14.478Z,64.69
2023-03-15T03:44:17.087Z,63.04
2023-03-15T03:46:19.827Z,62.53
2023-03-15T03:48:22.440Z,62.65
2023-03-15T03:50:26.423Z,63.14
2023-03-15T03:52:29.295Z,62.88
2023-03-15T03:54:32.583Z,63.21
2023-03-15T03:56:35.802Z,63.99
2023-03-15T03:58:38.424Z,64.41
2023-03-15T04:00:41.899Z,65.06
2023-03-15T04:02:44.817Z,64.75
2023-03-15T04:04:50.227Z,64.97
2023-03-15T04:06:54.505Z,65.08
2023-03-15T04:08:57.133Z,65.74
2023-03-15T04:10:59.688Z,65.57
2023-03-15T04:13:03.160Z,65.16
2023-03-15T04:15:06.660Z,65.73
2023-03-15T04:17:09.670Z,65.10
2023-03-15T04:19:13.572Z,65.25
2023-03-15T04:21:16.144Z,65.21
2023-03-15T04:23:20.043Z,65.67
2023-03-15T04:25:26.687Z,64.85
2023-03-15T04:27:29.327Z,64.20
2023-03-15T04:29:31.894Z,65.46
2023-03-15T04:31:37.752Z,63.31
2023-03-15T04:33:40.400Z,63.73
2023-03-15T04:35:43.446Z,63.64
2023-03-15T04:37:46.276Z,64.16
2023-03-15T04:39:52.414Z,64.18
2023-03-15T04:41:55.446Z,64.80
2023-03-15T04:43:58.008Z,64.17
2023-03-15T04:46:01.372Z,64.37
2023-03-15T04:48:04.364Z,64.53
2023-03-15T04:50:08.025Z,64.13
2023-03-15T04:52:10.631Z,64.71
2023-03-15T04:54:13.148Z,64.72
2023-03-15T04:56:17.199Z,65.12
2023-03-15T04:58:20.439Z,64.81
2023-03-15T05:00:23.214Z,65.95
2023-03-15T05:02:25.766Z,65.60
2023-03-15T05:04:28.356Z,65.95
2023-03-15T05:06:30.897Z,65.54
2023-03-15T05:08:33.453Z,66.07
2023-03-15T05:10:38.150Z,65.76
2023-03-15T05:12:42.032Z,65.81
2023-03-15T05:14:45.176Z,65.78
2023-03-15T05:16:48.337Z,66.48
2023-03-15T05:18:52.083Z,65.96
2023-03-15T05:20:55.754Z,66.39
2023-03-15T05:22:58.861Z,66.18
2023-03-15T05:25:01.404Z,65.87
2023-03-15T05:27:04.641Z,66.09
2023-03-15T05:29:08.561Z,66.51
2023-03-15T05:31:11.162Z,66.38
2023-03-15T05:33:13.966Z,65.64
2023-03-15T05:35:16.552Z,66.18
2023-03-15T05:37:19.210Z,66.84
2023-03-15T05:39:22.805Z,66.57
2023-03-15T05:41:25.464Z,66.67
2023-03-15T05:43:27.981Z,66.79
2023-03-15T05:45:31.964Z,66.66
2023-03-15T05:47:34.522Z,66.45
2023-03-15T05:49:37.056Z,66.45
2023-03-15T05:51:39.596Z,66.32
2023-03-15T05:53:42.955Z,67.31
2023-03-15T05:55:46.668Z,66.90
2023-03-15T05:57:49.298Z,66.83
2023-03-15T05:59:53.621Z,67.40
2023-03-15T06:01:58.248Z,67.05
2023-03-15T06:04:00.933Z,67.03
2023-03-15T06:06:05.012Z,67.48
2023-03-15T06:08:07.584Z,67.14
2023-03-15T06:10:11.811Z,67.60
2023-03-15T06:12:14.669Z,67.22
2023-03-15T06:14:17.293Z,67.78
2023-03-15T06:16:19.917Z,67.25
2023-03-15T06:18:23.978Z,67.51
2023-03-15T06:20:26.545Z,67.18
2023-03-15T06:22:29.127Z,67.02
2023-03-15T06:24:31.725Z,66.91
2023-03-15T06:26:34.268Z,66.85
2023-03-15T06:28:36.857Z,66.40
2023-03-15T06:30:40.878Z,66.70
2023-03-15T06:32:43.626Z,66.09
2023-03-15T06:34:47.579Z,66.76
2023-03-15T06:36:52.502Z,66.73
2023-03-15T06:38:55.216Z,67.04
2023-03-15T06:40:58.901Z,66.18
2023-03-15T06:43:05.867Z,66.16
2023-03-15T06:45:09.791Z,66.41
2023-03-15T06:47:13.080Z,66.16
2023-03-15T06:49:15.698Z,66.93
2023-03-15T06:51:19.591Z,66.57
2023-03-15T06:53:22.342Z,66.08
2023-03-15T06:55:24.895Z,65.90
2023-03-15T06:57:27.458Z,65.10
2023-03-15T06:59:30.032Z,64.75
2023-03-15T07:01:32.707Z,64.68
2023-03-15T07:03:35.260Z,64.32
2023-03-15T07:05:38.088Z,62.99
2023-03-15T07:07:41.993Z,63.21
2023-03-15T07:09:44.781Z,63.74
2023-03-15T07:11:47.330Z,64.14
2023-03-15T07:13:50.364Z,64.43
2023-03-15T07:15:53.989Z,62.43
2023-03-15T07:17:56.571Z,62.74
2023-03-15T07:19:59.085Z,62.07
2023-03-15T07:22:01.666Z,61.61
2023-03-15T07:24:06.145Z,61.50
2023-03-15T07:26:08.689Z,61.16
2023-03-15T07:28:11.248Z,61.22
2023-03-15T07:30:14.807Z,61.12
2023-03-15T07:32:17.437Z,60.94
2023-03-15T07:34:20.025Z,60.02
2023-03-15T07:36:23.057Z,60.47
2023-03-15T07:38:28.804Z,59.89
2023-03-15T07:40:34.763Z,59.05
2023-03-15T07:42:37.867Z,59.38
2023-03-15T07:44:40.396Z,59.35
2023-03-15T07:46:43.016Z,59.28
2023-03-15T07:48:45.643Z,58.68
2023-03-15T07:50:48.624Z,58.45
2023-03-15T07:52:51.148Z,58.59
2023-03-15T07:54:53.968Z,58.40
2023-03-15T07:56:57.867Z,57.36
2023-03-15T07:59:00.404Z,57.78
2023-03-15T08:01:02.962Z,56.04
2023-03-15T08:03:07.196Z,55.96
2023-03-15T08:05:10.141Z,56.80
2023-03-15T08:07:12.687Z,57.31
2023-03-15T08:09:15.236Z,57.25
2023-03-15T08:11:17.787Z,56.76
2023-03-15T08:13:21.719Z,56.97
2023-03-15T08:15:24.307Z,57.22
2023-03-15T08:17:26.837Z,54.96
2023-03-15T08:19:29.410Z,54.70
2023-03-15T08:21:33.608Z,53.55
2023-03-15T08:23:36.189Z,54.11
2023-03-15T08:25:40.854Z,53.94
2023-03-15T08:27:44.095Z,55.70
2023-03-15T08:29:47.997Z,54.56
2023-03-15T08:31:50.702Z,53.85
2023-03-15T08:33:53.415Z,55.20
2023-03-15T08:35:56.391Z,54.31
2023-03-15T08:37:59.006Z,54.95
2023-03-15T08:40:05.584Z,54.68
2023-03-15T08:42:08.309Z,52.46
2023-03-15T08:44:11.295Z,54.01
2023-03-15T08:46:15.488Z,53.48
2023-03-15T08:48:18.388Z,53.48
2023-03-15T08:50:21.238Z,52.95
2023-03-15T08:52:23.978Z,53.02
2023-03-15T08:54:27.441Z,51.85
2023-03-15T08:56:30.004Z,52.50
2023-03-15T08:58:32.573Z,49.89
2023-03-15T09:00:35.167Z,50.90
2023-03-15T09:02:39.111Z,52.44
2023-03-15T09:04:41.722Z,50.25
2023-03-15T09:06:44.282Z,51.05
2023-03-15T09:08:46.828Z,51.08
2023-03-15T09:10:49.390Z,52.06
2023-03-15T09:12:54.187Z,52.39
2023-03-15T09:14:56.814Z,51.20
2023-03-15T09:16:59.508Z,50.00
2023-03-15T09:19:03.442Z,50.26
2023-03-15T09:21:06.881Z,50.47
2023-03-15T09:23:09.478Z,50.28
2023-03-15T09:25:12.102Z,51.13
2023-03-15T09:27:14.680Z,51.29
2023-03-15T09:29:17.240Z,50.68
2023-03-15T09:31:19.802Z,51.77
2023-03-15T09:33:22.777Z,51.39
2023-03-15T09:35:26.736Z,52.35
2023-03-15T09:37:29.312Z,52.91
2023-03-15T09:39:33.319Z,52.21
2023-03-15T09:41:43.898Z,53.37
2023-03-15T09:44:02.880Z,49.10
2023-03-15T09:46:19.474Z,48.16
2023-03-15T09:48:28.603Z,47.34
2023-03-15T09:50:35.899Z,47.91
2023-03-15T09:52:44.468Z,47.31
2023-03-15T09:54:53.927Z,47.95
2023-03-15T09:57:02.087Z,47.26
2023-03-15T09:59:06.795Z,47.78
2023-03-15T10:01:14.229Z,48.78
2023-03-15T10:03:22.457Z,49.47
2023-03-15T10:05:39.866Z,49.81
2023-03-15T10:07:42.490Z,50.08
2023-03-15T10:09:46.803Z,50.17
2023-03-15T10:12:00.621Z,48.44
2023-03-15T10:14:19.437Z,49.27
2023-03-15T10:16:30.096Z,48.85
2023-03-15T10:18:46.866Z,49.28
2023-03-15T10:20:58.477Z,50.12
2023-03-15T10:23:08.917Z,50.43
2023-03-15T10:25:17.629Z,50.26
2023-03-15T10:27:25.053Z,49.36
2023-03-15T10:29:28.899Z,50.22
2023-03-15T10:31:44.524Z,49.85
2023-03-15T10:33:49.886Z,49.99
2023-03-15T10:35:58.602Z,49.41
2023-03-15T10:38:16.422Z,48.14
2023-03-15T10:40:40.307Z,48.64
2023-03-15T10:42:44.431Z,49.41
2023-03-15T10:44:46.969Z,48.98
2023-03-15T10:47:21.452Z,49.79
2023-03-15T10:49:34.421Z,47.81
2023-03-15T10:51:43.304Z,47.95
2023-03-15T10:53:54.344Z,46.71
2023-03-15T10:56:03.101Z,46.02
2023-03-15T10:58:21.118Z,47.44
2023-03-15T11:00:29.498Z,46.16
2023-03-15T11:02:32.212Z,45.84
2023-03-15T11:04:35.311Z,47.89
2023-03-15T11:06:43.039Z,45.31
2023-03-15T11:08:45.666Z,46.26
2023-03-15T11:10:57.072Z,45.19
2023-03-15T11:13:21.754Z,44.02
2023-03-15T11:15:24.317Z,44.86
2023-03-15T11:17:29.195Z,45.15
2023-03-15T11:19:35.064Z,45.94
2023-03-15T11:21:38.499Z,46.88
2023-03-15T11:23:45.216Z,43.85
2023-03-15T11:25:48.371Z,43.30
2023-03-15T11:27:53.570Z,44.01
2023-03-15T11:29:59.737Z,42.53
2023-03-15T11:32:06.367Z,41.39
2023-03-15T11:34:13.955Z,41.96
2023-03-15T11:36:20.005Z,43.39
2023-03-15T11:38:33.262Z,41.62
2023-03-15T11:40:41.656Z,41.06
2023-03-15T11:42:50.478Z,41.11
2023-03-15T11:44:56.355Z,41.99
2023-03-15T11:47:04.054Z,42.09
2023-03-15T11:49:16.665Z,42.57
2023-03-15T11:51:19.370Z,43.23
2023-03-15T11:53:24.448Z,42.69
2023-03-15T11:55:29.274Z,43.48
2023-03-15T11:57:45.591Z,42.72
2023-03-15T11:59:49.165Z,43.28
2023-03-15T12:01:55.905Z,44.04
2023-03-15T12:04:31.812Z,43.18
2023-03-15T12:06:38.828Z,42.85
2023-03-15T12:08:44.759Z,43.81
2023-03-15T12:10:49.584Z,44.31
2023-03-15T12:12:59.406Z,43.23
2023-03-15T12:15:16.194Z,43.35
2023-03-15T12:17:39.614Z,43.42
2023-03-15T12:19:42.368Z,43.92
2023-03-15T12:21:47.803Z,44.43
2023-03-15T12:23:59.352Z,44.18
2023-03-15T12:26:08.034Z,45.01
2023-03-15T12:28:22.284Z,44.71
2023-03-15T12:30:31.715Z,44.73
2023-03-15T12:32:48.178Z,44.95
2023-03-15T12:34:52.508Z,45.04
2023-03-15T12:36:58.895Z,44.23
2023-03-15T12:39:04.438Z,44.86
2023-03-15T12:41:10.721Z,44.48
2023-03-15T12:43:14.680Z,44.82
2023-03-15T12:45:37.495Z,45.39
2023-03-15T12:47:45.380Z,45.77
2023-03-15T12:49:48.112Z,45.86
2023-03-15T12:51:59.249Z,43.94
2023-03-15T12:54:03.938Z,44.23
2023-03-15T12:56:34.916Z,44.46
2023-03-15T12:58:41.946Z,44.29
2023-03-15T13:00:45.891Z,44.23
2023-03-15T13:02:51.935Z,44.29
2023-03-15T13:05:16.633Z,43.44
2023-03-15T13:07:26.946Z,44.49
2023-03-15T13:09:49.299Z,44.50
2023-03-15T13:11:58.192Z,44.59
2023-03-15T13:14:11.953Z,45.13
2023-03-15T13:16:29.389Z,45.39
2023-03-15T13:18:37.458Z,46.12
2023-03-15T13:20:43.128Z,45.10
2023-03-15T13:22:55.895Z,45.53
2023-03-15T13:25:06.454Z,45.73
2023-03-15T13:27:14.214Z,46.01
2023-03-15T13:29:22.953Z,45.28
2023-03-15T13:31:31.086Z,45.46
2023-03-15T13:33:33.973Z,46.10
2023-03-15T13:35:43.835Z,46.94
2023-03-15T13:37:46.479Z,47.26
2023-03-15T13:39:57.476Z,47.09
2023-03-15T13:42:01.834Z,46.75
2023-03-15T13:44:14.796Z,45.80
2023-03-15T13:46:20.077Z,46.19
2023-03-15T13:48:22.685Z,46.63
2023-03-15T13:50:25.251Z,46.46
2023-03-15T13:52:27.857Z,46.35
2023-03-15T13:54:32.614Z,46.12
2023-03-15T13:56:48.928Z,44.71
2023-03-15T13:58:52.952Z,43.50
2023-03-15T14:01:01.094Z,43.91
2023-03-15T14:03:08.295Z,43.54
2023-03-15T14:05:13.827Z,43.24
2023-03-15T14:07:28.655Z,44.29
2023-03-15T14:09:31.305Z,42.09
2023-03-15T14:11:38.381Z,42.81
2023-03-15T14:13:52.060Z,43.26
2023-03-15T14:15:58.208Z,44.34
2023-03-15T14:18:04.433Z,44.86
2023-03-15T14:20:16.444Z,45.19
2023-03-15T14:22:20.197Z,46.12
2023-03-15T14:24:28.380Z,46.50
2023-03-15T14:26:31.288Z,46.56
2023-03-15T14:28:34.559Z,44.60
2023-03-15T14:30:38.511Z,45.28
2023-03-15T14:32:53.512Z,46.12
2023-03-15T14:35:02.625Z,47.25
2023-03-15T14:37:10.079Z,46.90
2023-03-15T14:39:20.395Z,46.56
2023-03-15T14:41:32.988Z,45.12
2023-03-15T14:43:35.567Z,45.50
2023-03-15T14:45:40.374Z,46.02
2023-03-15T14:47:56.055Z,46.40
2023-03-15T14:49:59.644Z,47.24
2023-03-15T14:52:04.932Z,47.93
2023-03-15T14:54:13.175Z,47.11
2023-03-15T14:56:18.641Z,47.92
2023-03-15T14:58:23.079Z,46.29
2023-03-15T15:00:26.038Z,46.85
2023-03-15T15:02:29.035Z,46.63
2023-03-15T15:04:34.606Z,47.21
2023-03-15T15:06:37.865Z,46.37
2023-03-15T15:08:43.732Z,45.50
2023-03-15T15:10:50.442Z,45.73
2023-03-15T15:13:04.945Z,46.38
2023-03-15T15:15:16.514Z,47.04
2023-03-15T15:17:19.219Z,47.36
2023-03-15T15:19:21.803Z,47.70
2023-03-15T15:21:28.139Z,47.76
2023-03-15T15:23:32.801Z,47.53
2023-03-15T15:25:35.892Z,47.94
2023-03-15T15:27:39.800Z,48.28
2023-03-15T15:29:42.955Z,48.57
2023-03-15T15:31:46.631Z,49.06
2023-03-15T15:33:49.623Z,49.07
2023-03-15T15:35:54.752Z,48.88
2023-03-15T15:37:57.489Z,48.11
2023-03-15T15:40:00.081Z,48.77
2023-03-15T15:42:02.638Z,48.83
2023-03-15T15:44:15.484Z,49.46
2023-03-15T15:46:18.111Z,49.75
2023-03-15T15:48:20.669Z,50.07
2023-03-15T15:50:23.341Z,50.53
2023-03-15T15:52:25.892Z,51.28
2023-03-15T15:54:30.579Z,52.53
2023-03-15T15:56:35.894Z,53.33
2023-03-15T15:58:38.479Z,54.73
2023-03-15T16:00:42.354Z,55.60
2023-03-15T16:02:45.174Z,56.04
2023-03-15T16:04:47.739Z,56.50
2023-03-15T16:06:54.680Z,57.46
2023-03-15T16:08:57.774Z,58.31
2023-03-15T16:11:00.560Z,59.40
2023-03-15T16:13:05.346Z,60.06
2023-03-15T16:15:11.736Z,60.32
2023-03-15T16:17:18.906Z,60.62
2023-03-15T16:19:21.461Z,60.77
2023-03-15T16:21:33.391Z,61.04
2023-03-15T16:23:35.995Z,61.29
2023-03-15T16:25:38.540Z,61.60
2023-03-15T16:27:42.040Z,62.01
2023-03-15T16:29:47.412Z,61.91
2023-03-15T16:31:50.947Z,62.28
2023-03-15T16:33:54.840Z,62.85
2023-03-15T16:35:57.426Z,62.83
2023-03-15T16:38:01.673Z,63.27
2023-03-15T16:40:09.861Z,63.49
2023-03-15T16:42:13.846Z,63.58
2023-03-15T16:44:18.418Z,63.89
2023-03-15T16:46:21.010Z,63.95
2023-03-15T16:48:23.576Z,64.17
2023-03-15T16:50:27.844Z,64.23
2023-03-15T16:52:31.118Z,64.30
2023-03-15T16:54:41.188Z,64.73
2023-03-15T16:56:45.204Z,64.77
2023-03-15T16:58:52.747Z,64.94
2023-03-15T17:00:55.933Z,65.18
2023-03-15T17:02:59.939Z,65.37
2023-03-15T17:05:02.569Z,65.47
2023-03-15T17:07:08.582Z,65.47
2023-03-15T17:09:14.837Z,65.46
2023-03-15T17:11:18.965Z,65.43
2023-03-15T17:13:26.429Z,65.38
2023-03-15T17:15:30.978Z,65.08
2023-03-15T17:17:35.866Z,65.19
2023-03-15T17:19:38.873Z,64.86
2023-03-15T17:21:43.172Z,64.63
2023-03-15T17:23:47.703Z,64.35
2023-03-15T17:25:50.564Z,64.35
2023-03-15T17:27:53.205Z,64.27
2023-03-15T17:29:55.791Z,64.03
2023-03-15T17:31:58.422Z,63.95
2023-03-15T17:34:01.022Z,64.04
2023-03-15T17:36:06.973Z,64.13
2023-03-15T17:38:18.334Z,64.02
2023-03-15T17:40:25.090Z,64.27
2023-03-15T17:42:27.948Z,64.14
2023-03-15T17:44:31.327Z,64.27
2023-03-15T17:46:33.987Z,64.24
2023-03-15T17:48:37.268Z,64.21
2023-03-15T17:50:42.898Z,64.30
2023-03-15T17:52:47.108Z,64.16
2023-03-15T17:54:49.742Z,64.22
2023-03-15T17:56:53.679Z,64.27
2023-03-15T17:58:56.439Z,64.16
2023-03-15T18:00:59.898Z,64.35
2023-03-15T18:03:02.615Z,63.86
2023-03-15T18:05:13.298Z,64.03
2023-03-15T18:07:15.867Z,63.95
2023-03-15T18:09:18.425Z,64.10
2023-03-15T18:11:24.546Z,64.66
2023-03-15T18:13:28.897Z,64.89
2023-03-15T18:15:31.595Z,65.15
2023-03-15T18:17:34.242Z,65.24
2023-03-15T18:19:36.804Z,65.30
2023-03-15T18:21:39.366Z,65.47
2023-03-15T18:23:42.189Z,65.50
2023-03-15T18:25:44.911Z,65.28
2023-03-15T18:27:48.218Z,65.38
2023-03-15T18:29:52.632Z,65.45
2023-03-15T18:31:55.262Z,65.61
2023-03-15T18:33:57.924Z,65.36
2023-03-15T18:36:00.583Z,65.46
2023-03-15T18:38:03.989Z,65.60
2023-03-15T18:40:08.484Z,65.48
2023-03-15T18:42:11.557Z,65.52
2023-03-15T18:44:14.079Z,65.46
2023-03-15T18:46:19.685Z,65.34
2023-03-15T18:48:34.258Z,65.39
2023-03-15T18:50:43.336Z,65.48
2023-03-15T18:52:46.499Z,65.71
2023-03-15T18:54:49.268Z,65.56
2023-03-15T18:56:52.222Z,65.61
2023-03-15T18:58:55.641Z,65.40
2023-03-15T19:00:58.426Z,65.50
2023-03-15T19:03:04.199Z,65.67
2023-03-15T19:05:07.628Z,65.59
2023-03-15T19:07:10.174Z,65.59
2023-03-15T19:09:12.890Z,65.51
2023-03-15T19:11:15.438Z,65.56
2023-03-15T19:13:17.962Z,65.69
2023-03-15T19:15:22.154Z,65.85
2023-03-15T19:17:24.820Z,65.74
2023-03-15T19:19:29.245Z,65.61
2023-03-15T19:21:31.852Z,65.63
2023-03-15T19:23:34.664Z,65.67
2023-03-15T19:25:37.254Z,65.58
2023-03-15T19:27:40.056Z,65.84
2023-03-15T19:29:42.764Z,65.39
2023-03-15T19:31:45.279Z,65.29
2023-03-15T19:33:47.828Z,65.52
2023-03-15T19:35:52.113Z,65.28
2023-03-15T19:37:56.194Z,65.28
2023-03-15T19:39:58.793Z,65.23
2023-03-15T19:42:01.332Z,65.09
2023-03-15T19:44:03.895Z,64.71
2023-03-15T19:46:07.935Z,64.62
2023-03-15T19:48:16.075Z,64.71
2023-03-15T19:50:19.155Z,64.70
2023-03-15T19:52:23.207Z,64.53
2023-03-15T19:54:25.791Z,64.47
2023-03-15T19:56:28.343Z,64.76
2023-03-15T19:58:30.945Z,64.52
2023-03-15T20:00:33.647Z,64.70
2023-03-15T20:02:36.163Z,64.58
2023-03-15T20:04:39.298Z,64.79
2023-03-15T20:06:41.816Z,64.58
2023-03-15T20:08:45.725Z,64.40
2023-03-15T20:10:48.563Z,64.51
2023-03-15T20:12:51.133Z,64.85
2023-03-15T20:14:53.671Z,64.90
2023-03-15T20:16:56.215Z,64.86
2023-03-15T20:18:58.801Z,65.12
2023-03-15T20:21:01.348Z,65.23
2023-03-15T20:23:04.743Z,65.30
2023-03-15T20:25:09.712Z,65.74
2023-03-15T20:27:12.291Z,65.51
2023-03-15T20:29:14.894Z,65.34
2023-03-15T20:31:19.976Z,65.46
2023-03-15T20:33:22.567Z,65.40
2023-03-15T20:35:25.131Z,65.36
2023-03-15T20:37:29.776Z,65.12
2023-03-15T20:39:32.557Z,65.30
2023-03-15T20:41:38.420Z,64.90
2023-03-15T20:43:41.914Z,64.86
2023-03-15T20:45:44.738Z,64.80
2023-03-15T20:47:47.365Z,64.54
2023-03-15T20:49:49.979Z,64.63
2023-03-15T20:51:52.562Z,64.61
2023-03-15T20:53:55.107Z,64.60
2023-03-15T20:55:57.704Z,64.50
2023-03-15T20:58:01.788Z,64.89
2023-03-15T21:00:12.135Z,64.45
2023-03-15T21:02:14.692Z,64.29
2023-03-15T21:04:17.526Z,64.53
2023-03-15T21:06:20.083Z,64.18
2023-03-15T21:08:22.610Z,64.53
2023-03-15T21:10:25.528Z,64.26
2023-03-15T21:12:28.179Z,64.21
2023-03-15T21:14:32.591Z,64.32
2023-03-15T21:16:35.263Z,63.99
2023-03-15T21:18:38.395Z,63.77
2023-03-15T21:20:41.156Z,63.66
2023-03-15T21:22:43.725Z,63.72
2023-03-15T21:24:55.505Z,63.88
2023-03-15T21:26:58.737Z,64.27
2023-03-15T21:29:01.279Z,64.63
2023-03-15T21:31:05.690Z,64.46
2023-03-15T21:33:08.334Z,64.62
2023-03-15T21:35:11.223Z,64.46
2023-03-15T21:37:13.742Z,63.99
2023-03-15T21:39:16.300Z,64.24
2023-03-15T21:41:18.873Z,63.96
2023-03-15T21:43:21.402Z,64.39
2023-03-15T21:45:24.153Z,64.13
2023-03-15T21:47:28.215Z,64.45
2023-03-15T21:49:32.551Z,64.71
2023-03-15T21:51:35.193Z,64.68
2023-03-15T21:53:38.396Z,64.83
2023-03-15T21:55:40.926Z,64.41
2023-03-15T21:57:44.635Z,64.10
2023-03-15T21:59:47.171Z,64.22
2023-03-15T22:01:49.781Z,63.66
2023-03-15T22:03:54.676Z,63.67
2023-03-15T22:05:57.509Z,64.04
2023-03-15T22:08:00.042Z,64.16
2023-03-15T22:10:02.825Z,63.65
2023-03-15T22:12:05.881Z,63.74
2023-03-15T22:14:08.434Z,64.32
2023-03-15T22:16:12.555Z,64.05
2023-03-15T22:18:15.123Z,64.35
2023-03-15T22:20:19.124Z,63.96
2023-03-15T22:22:21.691Z,64.22
2023-03-15T22:24:24.332Z,64.22
2023-03-15T22:26:27.048Z,64.23
2023-03-15T22:28:29.608Z,64.80
2023-03-15T22:30:32.328Z,64.56
2023-03-15T22:32:35.032Z,64.76
2023-03-15T22:34:37.578Z,64.59
2023-03-15T22:36:42.653Z,63.85
2023-03-15T22:38:50.253Z,64.36
2023-03-15T22:41:01.005Z,64.27
2023-03-15T22:43:03.656Z,63.94
2023-03-15T22:45:07.091Z,64.12
2023-03-15T22:47:10.115Z,64.22
2023-03-15T22:49:12.710Z,64.46
2023-03-15T22:51:16.817Z,64.85
2023-03-15T22:53:20.673Z,65.14
2023-03-15T22:55:23.474Z,65.31
2023-03-15T22:57:26.023Z,64.84
2023-03-15T22:59:29.066Z,64.87
2023-03-15T23:01:31.812Z,65.04
2023-03-15T23:03:34.464Z,64.92
2023-03-15T23:05:37.019Z,64.81
2023-03-15T23:07:40.050Z,64.77
2023-03-15T23:09:44.067Z,65.01
2023-03-15T23:11:46.641Z,65.50
2023-03-15T23:13:49.243Z,64.72
2023-03-15T23:15:52.002Z,64.55
2023-03-15T23:17:55.879Z,65.29
2023-03-15T23:19:58.470Z,65.38
2023-03-15T23:22:02.023Z,65.65
2023-03-15T23:24:04.911Z,66.63
2023-03-15T23:26:08.930Z,66.13
2023-03-15T23:28:11.495Z,66.14
2023-03-15T23:30:15.649Z,66.11
2023-03-15T23:32:18.327Z,66.08
2023-03-15T23:34:23.403Z,65.94
2023-03-15T23:36:26.082Z,65.91
2023-03-15T23:38:29.000Z,66.01
2023-03-15T23:40:31.543Z,65.44
2023-03-15T23:42:37.517Z,66.12
2023-03-15T23:44:40.233Z,66.31
2023-03-15T23:46:42.941Z,66.54
2023-03-15T23:48:45.558Z,66.14
2023-03-15T23:50:53.226Z,65.80
2023-03-15T23:52:57.244Z,65.72
2023-03-15T23:54:59.828Z,65.45
2023-03-15T23:57:02.381Z,65.12
2023-03-15T23:59:06.265Z,64.75
